sensor_id;sensor_type;location;lat;lon;timestamp;pressure;altitude;pressure_sealevel;temperature;humidity
10840;BME280;5473;42.706;23.328;2022-09-13T00:00:40;68191.97;;;-142.93;98.44
10840;BME280;5473;42.706;23.328;2022-09-13T00:03:07;67677.97;;;-142.93;98.21
10840;BME280;5473;42.706;23.328;2022-09-13T00:05:35;67421.00;;;-142.93;97.89
10840;BME280;5473;42.706;23.328;2022-09-13T00:08:02;67164.03;;;-142.93;97.64
10840;BME280;5473;42.706;23.328;2022-09-13T00:10:30;66650.19;;;-142.93;97.38
10840;BME280;5473;42.706;23.328;2022-09-13T00:12:59;66393.31;;;-142.93;96.81
10840;BME280;5473;42.706;23.328;2022-09-13T00:15:26;66393.31;;;-142.93;96.53
10840;BME280;5473;42.706;23.328;2022-09-13T00:17:54;66136.44;;;-142.93;96.42
10840;BME280;5473;42.706;23.328;2022-09-13T00:20:21;66650.19;;;-142.93;96.28
10840;BME280;5473;42.706;23.328;2022-09-13T00:22:48;66907.09;;;-142.93;96.29
10840;BME280;5473;42.706;23.328;2022-09-13T00:25:15;66650.19;;;-142.93;96.10
10840;BME280;5473;42.706;23.328;2022-09-13T00:27:42;66650.19;;;-142.93;95.95
10840;BME280;5473;42.706;23.328;2022-09-13T00:30:11;65879.56;;;-142.93;95.55
10840;BME280;5473;42.706;23.328;2022-09-13T00:32:37;65109.13;;;-142.93;95.40
10840;BME280;5473;42.706;23.328;2022-09-13T00:35:07;65365.94;;;-142.93;95.23
10840;BME280;5473;42.706;23.328;2022-09-13T00:37:34;65622.75;;;-142.93;95.01
10840;BME280;5473;42.706;23.328;2022-09-13T00:40:01;66136.44;;;-142.93;95.12
10840;BME280;5473;42.706;23.328;2022-09-13T00:42:30;66136.44;;;-142.93;95.27
10840;BME280;5473;42.706;23.328;2022-09-13T00:44:59;66393.31;;;-142.93;95.04
10840;BME280;5473;42.706;23.328;2022-09-13T00:47:32;67164.03;;;-142.93;95.48
10840;BME280;5473;42.706;23.328;2022-09-13T00:50:10;66907.09;;;-142.93;95.28
10840;BME280;5473;42.706;23.328;2022-09-13T00:52:41;66907.09;;;-142.93;95.31
10840;BME280;5473;42.706;23.328;2022-09-13T00:55:12;66393.31;;;-142.93;95.02
10840;BME280;5473;42.706;23.328;2022-09-13T00:57:41;66136.44;;;-142.93;94.88
10840;BME280;5473;42.706;23.328;2022-09-13T01:00:10;65879.56;;;-142.93;94.67
10840;BME280;5473;42.706;23.328;2022-09-13T01:02:41;65109.13;;;-142.93;94.43
10840;BME280;5473;42.706;23.328;2022-09-13T01:05:12;64338.84;;;-142.93;94.24
10840;BME280;5473;42.706;23.328;2022-09-13T01:07:40;64595.59;;;-142.93;94.17
10840;BME280;5473;42.706;23.328;2022-09-13T01:10:08;64338.84;;;-142.93;93.93
10840;BME280;5473;42.706;23.328;2022-09-13T01:12:40;64082.13;;;-142.93;93.72
10840;BME280;5473;42.706;23.328;2022-09-13T01:15:09;63825.44;;;-142.93;93.57
10840;BME280;5473;42.706;23.328;2022-09-13T01:17:36;64595.59;;;-142.93;93.76
10840;BME280;5473;42.706;23.328;2022-09-13T01:20:06;63568.75;;;-142.93;93.55
10840;BME280;5473;42.706;23.328;2022-09-13T01:28:40;62285.66;;;-142.93;92.75
10840;BME280;5473;42.706;23.328;2022-09-13T01:31:18;61772.53;;;-142.93;92.50
10840;BME280;5473;42.706;23.328;2022-09-13T01:34:00;61516.00;;;-142.93;92.29
10840;BME280;5473;42.706;23.328;2022-09-13T01:39:24;61516.00;;;-142.93;92.13
10840;BME280;5473;42.706;23.328;2022-09-13T01:42:03;61772.53;;;-142.93;92.15
10840;BME280;5473;42.706;23.328;2022-09-13T01:44:46;62029.09;;;-142.93;91.99
10840;BME280;5473;42.706;23.328;2022-09-13T01:47:24;63312.09;;;-142.93;92.32
10840;BME280;5473;42.706;23.328;2022-09-13T01:50:00;63825.44;;;-142.93;92.50
10840;BME280;5473;42.706;23.328;2022-09-13T01:52:31;64338.84;;;-142.93;92.79
10840;BME280;5473;42.706;23.328;2022-09-13T01:55:05;65622.75;;;-142.93;92.99
10840;BME280;5473;42.706;23.328;2022-09-13T01:57:37;65622.75;;;-142.93;92.95
10840;BME280;5473;42.706;23.328;2022-09-13T02:00:11;66650.19;;;-142.93;93.28
10840;BME280;5473;42.706;23.328;2022-09-13T02:02:42;66907.09;;;-142.93;93.34
10840;BME280;5473;42.706;23.328;2022-09-13T02:05:14;67164.03;;;-142.93;93.64
10840;BME280;5473;42.706;23.328;2022-09-13T02:07:49;67164.03;;;-142.93;93.55
10840;BME280;5473;42.706;23.328;2022-09-13T02:10:21;67164.03;;;-142.93;93.75
10840;BME280;5473;42.706;23.328;2022-09-13T02:12:52;66907.09;;;-142.93;93.65
10840;BME280;5473;42.706;23.328;2022-09-13T02:15:23;67934.94;;;-142.93;93.89
10840;BME280;5473;42.706;23.328;2022-09-13T02:17:57;69477.28;;;-142.93;94.40
10840;BME280;5473;42.706;23.328;2022-09-13T02:20:27;70505.91;;;-142.93;94.99
10840;BME280;5473;42.706;23.328;2022-09-13T02:22:58;71277.56;;;-142.93;95.72
10840;BME280;5473;42.706;23.328;2022-09-13T02:25:32;71792.13;;;-142.93;96.53
10840;BME280;5473;42.706;23.328;2022-09-13T02:28:03;72049.41;;;-142.93;97.46
10840;BME280;5473;42.706;23.328;2022-09-13T02:30:36;71020.34;;;-142.93;98.69
10840;BME280;5473;42.706;23.328;2022-09-13T02:33:11;67934.94;;;-142.93;100.00
10840;BME280;5473;42.706;23.328;2022-09-13T02:35:44;53867.22;;;-142.93;100.00
10840;BME280;5473;42.706;23.328;2022-09-13T02:38:16;43515.59;;;-142.93;100.00
10840;BME280;5473;42.706;23.328;2022-09-13T02:40:50;25543.50;;;-142.93;100.00
10840;BME280;5473;42.706;23.328;2022-09-13T02:43:24;13636.81;;;-142.93;100.00
10840;BME280;5473;42.706;23.328;2022-09-13T02:46:07;-2004.56;;;-142.93;100.00
10840;BME280;5473;42.706;23.328;2022-09-13T02:48:47;-9044.06;;;-142.93;100.00
10840;BME280;5473;42.706;23.328;2022-09-13T02:51:20;-9546.28;;;-142.93;100.00
10840;BME280;5473;42.706;23.328;2022-09-13T02:53:53;-10299.50;;;-142.93;100.00
10840;BME280;5473;42.706;23.328;2022-09-13T02:56:28;-10801.56;;;-142.93;100.00
10840;BME280;5473;42.706;23.328;2022-09-13T02:59:02;-11052.53;;;-142.93;100.00
10840;BME280;5473;42.706;23.328;2022-09-13T03:01:31;-11303.53;;;-142.93;100.00
10840;BME280;5473;42.706;23.328;2022-09-13T03:04:00;-11303.53;;;-142.93;100.00
10840;BME280;5473;42.706;23.328;2022-09-13T03:06:28;-11805.41;;;-142.93;100.00
10840;BME280;5473;42.706;23.328;2022-09-13T03:08:57;-12056.34;;;-142.93;100.00
10840;BME280;5473;42.706;23.328;2022-09-13T03:11:35;-12056.34;;;-142.93;100.00
10840;BME280;5473;42.706;23.328;2022-09-13T03:14:19;-12307.22;;;-142.93;100.00
10840;BME280;5473;42.706;23.328;2022-09-13T03:17:03;-12558.09;;;-142.93;100.00
10840;BME280;5473;42.706;23.328;2022-09-13T03:19:43;-12558.09;;;-142.93;100.00
10840;BME280;5473;42.706;23.328;2022-09-13T03:22:31;-12808.97;;;-142.93;100.00
10840;BME280;5473;42.706;23.328;2022-09-13T03:25:08;-13059.81;;;-142.93;100.00
10840;BME280;5473;42.706;23.328;2022-09-13T03:27:44;-13059.81;;;-142.93;100.00
10840;BME280;5473;42.706;23.328;2022-09-13T03:30:15;-13310.63;;;-142.93;100.00
10840;BME280;5473;42.706;23.328;2022-09-13T03:32:48;-13310.63;;;-142.93;100.00
10840;BME280;5473;42.706;23.328;2022-09-13T03:35:24;-13310.63;;;-142.93;100.00
10840;BME280;5473;42.706;23.328;2022-09-13T03:37:58;-13059.81;;;-142.93;100.00
10840;BME280;5473;42.706;23.328;2022-09-13T03:40:34;-12808.97;;;-142.93;100.00
10840;BME280;5473;42.706;23.328;2022-09-13T03:43:07;-12808.97;;;-142.93;100.00
10840;BME280;5473;42.706;23.328;2022-09-13T03:45:39;-12808.97;;;-142.93;100.00
10840;BME280;5473;42.706;23.328;2022-09-13T03:48:09;-13059.81;;;-142.93;100.00
10840;BME280;5473;42.706;23.328;2022-09-13T03:50:39;-12808.97;;;-142.93;100.00
10840;BME280;5473;42.706;23.328;2022-09-13T03:53:09;-12808.97;;;-142.93;100.00
10840;BME280;5473;42.706;23.328;2022-09-13T03:55:39;-12808.97;;;-142.93;100.00
10840;BME280;5473;42.706;23.328;2022-09-13T03:58:09;-13059.81;;;-142.93;100.00
10840;BME280;5473;42.706;23.328;2022-09-13T04:00:36;-13059.81;;;-142.93;100.00
10840;BME280;5473;42.706;23.328;2022-09-13T04:03:05;-13310.63;;;-142.93;100.00
10840;BME280;5473;42.706;23.328;2022-09-13T04:05:32;-13310.63;;;-142.93;100.00
10840;BME280;5473;42.706;23.328;2022-09-13T04:08:01;-13561.44;;;-142.93;100.00
10840;BME280;5473;42.706;23.328;2022-09-13T04:10:30;-13812.22;;;-142.93;100.00
10840;BME280;5473;42.706;23.328;2022-09-13T04:12:57;-13812.22;;;-142.93;100.00
10840;BME280;5473;42.706;23.328;2022-09-13T04:15:24;-14062.97;;;-142.93;100.00
10840;BME280;5473;42.706;23.328;2022-09-13T04:17:51;-13812.22;;;-142.93;100.00
10840;BME280;5473;42.706;23.328;2022-09-13T04:20:19;-14062.97;;;-142.93;100.00
10840;BME280;5473;42.706;23.328;2022-09-13T04:22:50;-13812.22;;;-142.93;100.00
10840;BME280;5473;42.706;23.328;2022-09-13T04:25:19;-14062.97;;;-142.93;100.00
10840;BME280;5473;42.706;23.328;2022-09-13T04:27:46;-14062.97;;;-142.93;100.00
10840;BME280;5473;42.706;23.328;2022-09-13T04:30:13;-14062.97;;;-142.93;100.00
10840;BME280;5473;42.706;23.328;2022-09-13T04:32:41;-14062.97;;;-142.93;100.00
10840;BME280;5473;42.706;23.328;2022-09-13T04:35:08;-14062.97;;;-142.93;100.00
10840;BME280;5473;42.706;23.328;2022-09-13T04:37:36;-13812.22;;;-142.93;100.00
10840;BME280;5473;42.706;23.328;2022-09-13T04:40:04;-13812.22;;;-142.93;100.00
10840;BME280;5473;42.706;23.328;2022-09-13T04:42:32;-13812.22;;;-142.93;100.00
10840;BME280;5473;42.706;23.328;2022-09-13T04:44:59;-13812.22;;;-142.93;100.00
10840;BME280;5473;42.706;23.328;2022-09-13T04:47:26;-13561.44;;;-142.93;100.00
10840;BME280;5473;42.706;23.328;2022-09-13T04:49:53;-13310.63;;;-142.93;100.00
10840;BME280;5473;42.706;23.328;2022-09-13T04:52:20;-13310.63;;;-142.93;100.00
10840;BME280;5473;42.706;23.328;2022-09-13T04:54:46;-13059.81;;;-142.93;100.00
10840;BME280;5473;42.706;23.328;2022-09-13T04:57:13;-12808.97;;;-142.93;100.00
10840;BME280;5473;42.706;23.328;2022-09-13T04:59:42;-12307.22;;;-142.93;100.00
10840;BME280;5473;42.706;23.328;2022-09-13T05:02:09;-11805.41;;;-142.93;100.00
10840;BME280;5473;42.706;23.328;2022-09-13T05:04:36;-11052.53;;;-142.93;100.00
10840;BME280;5473;42.706;23.328;2022-09-13T05:07:03;-10801.56;;;-142.93;100.00
10840;BME280;5473;42.706;23.328;2022-09-13T05:09:30;-10299.50;;;-142.93;100.00
10840;BME280;5473;42.706;23.328;2022-09-13T05:11:57;-9295.19;;;-142.93;100.00
10840;BME280;5473;42.706;23.328;2022-09-13T05:14:24;-8039.34;;;-142.93;100.00
10840;BME280;5473;42.706;23.328;2022-09-13T05:16:52;-6280.34;;;-142.93;100.00
10840;BME280;5473;42.706;23.328;2022-09-13T05:19:19;-5526.22;;;-142.93;100.00
10840;BME280;5473;42.706;23.328;2022-09-13T05:21:46;-3765.88;;;-142.93;94.00
10840;BME280;5473;42.706;23.328;2022-09-13T05:24:13;-2507.91;;;-142.93;91.77
10840;BME280;5473;42.706;23.328;2022-09-13T05:26:40;1016.97;;;-142.93;88.20
10840;BME280;5473;42.706;23.328;2022-09-13T05:29:07;10351.00;;;-142.93;82.62
10840;BME280;5473;42.706;23.328;2022-09-13T05:31:35;27118.16;;;-142.93;77.38
10840;BME280;5473;42.706;23.328;2022-09-13T05:34:05;33096.34;;;-142.93;73.42
10840;BME280;5473;42.706;23.328;2022-09-13T05:36:32;35915.41;;;-142.93;69.32
10840;BME280;5473;42.706;23.328;2022-09-13T05:38:59;36816.47;;;-142.93;65.71
10840;BME280;5473;42.706;23.328;2022-09-13T05:41:26;37142.78;;;-142.93;61.24
10840;BME280;5473;42.706;23.328;2022-09-13T05:43:53;37218.38;;;-142.93;58.19
10840;BME280;5473;42.706;23.328;2022-09-13T05:46:20;37264.13;;;-142.93;56.47
10840;BME280;5473;42.706;23.328;2022-09-13T05:48:48;37303.94;;;-142.93;54.51
10840;BME280;5473;42.706;23.328;2022-09-13T05:51:17;37274.09;;;-142.93;54.14
10840;BME280;5473;42.706;23.328;2022-09-13T05:53:46;37268.13;;;-142.93;51.88
10840;BME280;5473;42.706;23.328;2022-09-13T05:56:15;37293.97;;;-142.93;51.66
10840;BME280;5473;42.706;23.328;2022-09-13T05:58:43;37309.91;;;-142.93;51.21
10840;BME280;5473;42.706;23.328;2022-09-13T06:01:11;37331.78;;;-142.93;51.61
10840;BME280;5473;42.706;23.328;2022-09-13T06:03:38;37333.78;;;-142.93;51.98
10840;BME280;5473;42.706;23.328;2022-09-13T06:06:06;37301.94;;;-142.93;51.24
10840;BME280;5473;42.706;23.328;2022-09-13T06:08:34;37343.72;;;-142.93;50.62
10840;BME280;5473;42.706;23.328;2022-09-13T06:11:03;37349.69;;;-142.93;50.06
10840;BME280;5473;42.706;23.328;2022-09-13T06:13:31;37383.53;;;-142.93;49.71
10840;BME280;5473;42.706;23.328;2022-09-13T06:15:59;37421.31;;;-142.93;50.41
10840;BME280;5473;42.706;23.328;2022-09-13T06:18:27;37393.47;;;-142.93;50.34
10840;BME280;5473;42.706;23.328;2022-09-13T06:20:57;37389.50;;;-142.93;49.27
10840;BME280;5473;42.706;23.328;2022-09-13T06:23:26;37449.19;;;-142.93;49.50
10840;BME280;5473;42.706;23.328;2022-09-13T06:26:02;37431.28;;;-142.93;50.27
10840;BME280;5473;42.706;23.328;2022-09-13T06:28:29;37475.06;;;-142.93;49.73
10840;BME280;5473;42.706;23.328;2022-09-13T06:31:00;37443.22;;;-142.93;49.98
10840;BME280;5473;42.706;23.328;2022-09-13T06:33:27;37459.13;;;-142.93;50.52
10840;BME280;5473;42.706;23.328;2022-09-13T06:35:54;37437.25;;;-142.93;49.72
10840;BME280;5473;42.706;23.328;2022-09-13T06:38:21;37383.53;;;-142.93;48.28
10840;BME280;5473;42.706;23.328;2022-09-13T06:40:48;37268.13;;;-142.93;46.78
10840;BME280;5473;42.706;23.328;2022-09-13T06:43:16;37276.06;;;-142.93;46.56
10840;BME280;5473;42.706;23.328;2022-09-13T06:45:43;37244.25;;;-142.93;46.29
10840;BME280;5473;42.706;23.328;2022-09-13T06:48:10;37122.88;;;-142.93;44.44
10840;BME280;5473;42.706;23.328;2022-09-13T06:50:36;37172.63;;;-142.93;43.93
10840;BME280;5473;42.706;23.328;2022-09-13T06:53:03;37290.00;;;-142.93;45.37
10840;BME280;5473;42.706;23.328;2022-09-13T06:55:30;37290.00;;;-142.93;45.89
10840;BME280;5473;42.706;23.328;2022-09-13T06:57:57;37190.53;;;-142.93;44.16
10840;BME280;5473;42.706;23.328;2022-09-13T07:00:25;37256.19;;;-142.93;43.92
10840;BME280;5473;42.706;23.328;2022-09-13T07:02:52;37162.66;;;-142.93;43.07
10840;BME280;5473;42.706;23.328;2022-09-13T07:05:19;37196.50;;;-142.93;42.73
10840;BME280;5473;42.706;23.328;2022-09-13T07:07:46;37202.47;;;-142.93;42.52
10840;BME280;5473;42.706;23.328;2022-09-13T07:10:13;37214.41;;;-142.93;42.51
10840;BME280;5473;42.706;23.328;2022-09-13T07:12:40;37188.53;;;-142.93;42.15
10840;BME280;5473;42.706;23.328;2022-09-13T07:15:08;37097.00;;;-142.93;41.67
10840;BME280;5473;42.706;23.328;2022-09-13T07:17:36;37043.28;;;-142.93;40.65
10840;BME280;5473;42.706;23.328;2022-09-13T07:20:03;37202.47;;;-142.93;41.31
10840;BME280;5473;42.706;23.328;2022-09-13T07:22:33;37208.44;;;-142.93;41.32
10840;BME280;5473;42.706;23.328;2022-09-13T07:24:59;37250.22;;;-142.93;42.11
10840;BME280;5473;42.706;23.328;2022-09-13T07:27:26;37011.47;;;-142.93;40.65
10840;BME280;5473;42.706;23.328;2022-09-13T07:29:53;36993.56;;;-142.93;40.05
10840;BME280;5473;42.706;23.328;2022-09-13T07:32:20;37049.25;;;-142.93;39.93
10840;BME280;5473;42.706;23.328;2022-09-13T07:34:49;37023.38;;;-142.93;39.99
10840;BME280;5473;42.706;23.328;2022-09-13T07:37:16;36892.09;;;-142.93;38.81
10840;BME280;5473;42.706;23.328;2022-09-13T07:39:42;36818.47;;;-142.93;37.86
10840;BME280;5473;42.706;23.328;2022-09-13T07:42:09;36816.47;;;-142.93;37.65
10840;BME280;5473;42.706;23.328;2022-09-13T07:44:36;36679.22;;;-142.93;36.78
10840;BME280;5473;42.706;23.328;2022-09-13T07:47:03;36772.72;;;-142.93;36.57
10840;BME280;5473;42.706;23.328;2022-09-13T07:49:30;36703.09;;;-142.93;35.96
10840;BME280;5473;42.706;23.328;2022-09-13T07:51:58;36752.81;;;-142.93;35.37
10840;BME280;5473;42.706;23.328;2022-09-13T07:54:25;36802.56;;;-142.93;34.79
10840;BME280;5473;42.706;23.328;2022-09-13T07:56:52;36764.75;;;-142.93;35.02
10840;BME280;5473;42.706;23.328;2022-09-13T07:59:18;36788.63;;;-142.93;35.45
10840;BME280;5473;42.706;23.328;2022-09-13T08:01:46;36621.53;;;-142.93;34.28
10840;BME280;5473;42.706;23.328;2022-09-13T08:04:14;36836.38;;;-142.93;34.72
10840;BME280;5473;42.706;23.328;2022-09-13T08:06:43;36734.91;;;-142.93;34.39
10840;BME280;5473;42.706;23.328;2022-09-13T08:09:12;36625.50;;;-142.93;33.26
10840;BME280;5473;42.706;23.328;2022-09-13T08:11:41;36764.75;;;-142.93;33.53
10840;BME280;5473;42.706;23.328;2022-09-13T08:14:11;36673.25;;;-142.93;32.88
10840;BME280;5473;42.706;23.328;2022-09-13T08:16:38;36400.72;;;-142.93;31.61
10840;BME280;5473;42.706;23.328;2022-09-13T08:19:06;36848.31;;;-142.93;33.04
10840;BME280;5473;42.706;23.328;2022-09-13T08:21:35;36709.06;;;-142.93;32.99
10840;BME280;5473;42.706;23.328;2022-09-13T08:24:03;36701.09;;;-142.93;32.11
10840;BME280;5473;42.706;23.328;2022-09-13T08:26:33;36633.47;;;-142.93;32.22
10840;BME280;5473;42.706;23.328;2022-09-13T08:29:01;36541.97;;;-142.93;31.28
10840;BME280;5473;42.706;23.328;2022-09-13T08:31:29;36601.63;;;-142.93;31.46
10840;BME280;5473;42.706;23.328;2022-09-13T08:33:57;36470.34;;;-142.93;31.42
10840;BME280;5473;42.706;23.328;2022-09-13T08:36:24;36408.69;;;-142.93;30.87
10840;BME280;5473;42.706;23.328;2022-09-13T08:38:52;36237.63;;;-142.93;29.74
10840;BME280;5473;42.706;23.328;2022-09-13T08:41:54;36460.41;;;-142.93;29.88
10840;BME280;5473;42.706;23.328;2022-09-13T08:44:26;36520.06;;;-142.93;29.57
10840;BME280;5473;42.706;23.328;2022-09-13T08:46:58;36701.09;;;-142.93;29.66
10840;BME280;5473;42.706;23.328;2022-09-13T08:49:31;36764.75;;;-142.93;30.68
10840;BME280;5473;42.706;23.328;2022-09-13T08:52:09;36806.53;;;-142.93;30.92
10840;BME280;5473;42.706;23.328;2022-09-13T08:54:41;37136.81;;;-142.93;32.61
10840;BME280;5473;42.706;23.328;2022-09-13T08:57:12;37142.78;;;-142.93;32.63
10840;BME280;5473;42.706;23.328;2022-09-13T08:59:50;37411.38;;;-142.93;32.75
10840;BME280;5473;42.706;23.328;2022-09-13T09:02:32;37552.66;;;-142.93;33.17
10840;BME280;5473;42.706;23.328;2022-09-13T09:05:13;37564.59;;;-142.93;33.58
10840;BME280;5473;42.706;23.328;2022-09-13T09:07:44;37524.78;;;-142.93;33.98
10840;BME280;5473;42.706;23.328;2022-09-13T09:10:15;37465.09;;;-142.93;33.67
10840;BME280;5473;42.706;23.328;2022-09-13T09:12:46;37477.03;;;-142.93;34.00
10840;BME280;5473;42.706;23.328;2022-09-13T09:15:15;37554.66;;;-142.93;34.52
10840;BME280;5473;42.706;23.328;2022-09-13T09:17:50;37604.38;;;-142.93;35.39
10840;BME280;5473;42.706;23.328;2022-09-13T09:20:26;37727.75;;;-142.93;37.14
10840;BME280;5473;42.706;23.328;2022-09-13T09:23:02;37564.59;;;-142.93;36.04
10840;BME280;5473;42.706;23.328;2022-09-13T09:25:30;37383.53;;;-142.93;34.72
10840;BME280;5473;42.706;23.328;2022-09-13T09:27:59;36955.75;;;-142.93;32.05
10840;BME280;5473;42.706;23.328;2022-09-13T09:30:35;36488.25;;;-142.93;29.73
10840;BME280;5473;42.706;23.328;2022-09-13T09:33:15;36000.91;;;-142.93;28.23
10840;BME280;5473;42.706;23.328;2022-09-13T09:35:50;35672.75;;;-142.93;27.01
10840;BME280;5473;42.706;23.328;2022-09-13T09:38:39;35623.03;;;-142.93;26.68
10840;BME280;5473;42.706;23.328;2022-09-13T09:41:13;35591.22;;;-142.93;26.28
10840;BME280;5473;42.706;23.328;2022-09-13T09:43:47;36114.28;;;-142.93;27.29
10840;BME280;5473;42.706;23.328;2022-09-13T09:46:21;35841.81;;;-142.93;26.69
10840;BME280;5473;42.706;23.328;2022-09-13T09:48:53;35682.69;;;-142.93;26.13
10840;BME280;5473;42.706;23.328;2022-09-13T09:51:22;36382.81;;;-142.93;27.89
10840;BME280;5473;42.706;23.328;2022-09-13T09:53:54;36627.50;;;-142.93;28.36
10840;BME280;5473;42.706;23.328;2022-09-13T09:56:29;36726.97;;;-142.93;28.76
10840;BME280;5473;42.706;23.328;2022-09-13T09:58:58;36860.25;;;-142.93;29.57
10840;BME280;5473;42.706;23.328;2022-09-13T10:01:28;36796.59;;;-142.93;29.44
10840;BME280;5473;42.706;23.328;2022-09-13T10:04:05;36547.94;;;-142.93;28.36
10840;BME280;5473;42.706;23.328;2022-09-13T10:06:35;36428.56;;;-142.93;27.84
10840;BME280;5473;42.706;23.328;2022-09-13T10:09:04;36352.97;;;-142.93;27.69
10840;BME280;5473;42.706;23.328;2022-09-13T10:11:40;36283.38;;;-142.93;27.80
10840;BME280;5473;42.706;23.328;2022-09-13T10:14:28;36243.56;;;-142.93;27.31
10840;BME280;5473;42.706;23.328;2022-09-13T10:17:03;36106.34;;;-142.93;26.91
10840;BME280;5473;42.706;23.328;2022-09-13T10:19:31;36335.06;;;-142.93;27.49
10840;BME280;5473;42.706;23.328;2022-09-13T10:22:00;35772.19;;;-142.93;26.09
10840;BME280;5473;42.706;23.328;2022-09-13T10:24:27;35841.81;;;-142.93;26.15
10840;BME280;5473;42.706;23.328;2022-09-13T10:26:55;35756.28;;;-142.93;25.65
10840;BME280;5473;42.706;23.328;2022-09-13T10:29:23;35845.78;;;-142.93;25.64
10840;BME280;5473;42.706;23.328;2022-09-13T10:31:52;35875.63;;;-142.93;25.45
10840;BME280;5473;42.706;23.328;2022-09-13T10:34:25;35841.81;;;-142.93;25.70
10840;BME280;5473;42.706;23.328;2022-09-13T10:36:55;35738.38;;;-142.93;25.68
10840;BME280;5473;42.706;23.328;2022-09-13T10:39:24;35835.84;;;-142.93;25.78
10840;BME280;5473;42.706;23.328;2022-09-13T10:41:56;35985.00;;;-142.93;26.16
10840;BME280;5473;42.706;23.328;2022-09-13T10:44:30;36195.84;;;-142.93;26.44
10840;BME280;5473;42.706;23.328;2022-09-13T10:47:02;36281.38;;;-142.93;26.82
10840;BME280;5473;42.706;23.328;2022-09-13T10:49:38;36464.38;;;-142.93;27.40
10840;BME280;5473;42.706;23.328;2022-09-13T10:52:26;36414.66;;;-142.93;27.34
10840;BME280;5473;42.706;23.328;2022-09-13T10:54:53;36378.84;;;-142.93;26.97
10840;BME280;5473;42.706;23.328;2022-09-13T10:57:32;36396.75;;;-142.93;26.93
10840;BME280;5473;42.706;23.328;2022-09-13T10:59:59;36227.66;;;-142.93;26.21
10840;BME280;5473;42.706;23.328;2022-09-13T11:02:39;36191.88;;;-142.93;26.00
10840;BME280;5473;42.706;23.328;2022-09-13T11:05:17;36229.66;;;-142.93;25.87
10840;BME280;5473;42.706;23.328;2022-09-13T11:08:07;36426.59;;;-142.93;26.40
10840;BME280;5473;42.706;23.328;2022-09-13T11:10:43;36247.56;;;-142.93;25.94
10840;BME280;5473;42.706;23.328;2022-09-13T11:13:18;36227.66;;;-142.93;26.30
10840;BME280;5473;42.706;23.328;2022-09-13T11:15:53;36464.38;;;-142.93;26.22
10840;BME280;5473;42.706;23.328;2022-09-13T11:18:42;36225.69;;;-142.93;25.72
10840;BME280;5473;42.706;23.328;2022-09-13T11:21:29;36168.00;;;-142.93;25.75
10840;BME280;5473;42.706;23.328;2022-09-13T11:24:29;35979.03;;;-142.93;25.43
10840;BME280;5473;42.706;23.328;2022-09-13T11:27:06;36028.75;;;-142.93;25.22
10840;BME280;5473;42.706;23.328;2022-09-13T11:29:49;35736.41;;;-142.93;24.80
10840;BME280;5473;42.706;23.328;2022-09-13T11:32:28;35696.63;;;-142.93;24.76
10840;BME280;5473;42.706;23.328;2022-09-13T11:37:58;35750.31;;;-142.93;25.00
10840;BME280;5473;42.706;23.328;2022-09-13T11:40:39;36460.41;;;-142.93;26.14
10840;BME280;5473;42.706;23.328;2022-09-13T11:43:31;36335.06;;;-142.93;26.06
10840;BME280;5473;42.706;23.328;2022-09-13T11:46:08;36476.31;;;-142.93;26.12
10840;BME280;5473;42.706;23.328;2022-09-13T11:48:57;36319.16;;;-142.93;25.92
10840;BME280;5473;42.706;23.328;2022-09-13T11:51:36;36450.44;;;-142.93;26.17
10840;BME280;5473;42.706;23.328;2022-09-13T11:54:18;36850.31;;;-142.93;27.17
10840;BME280;5473;42.706;23.328;2022-09-13T11:56:50;36758.78;;;-142.93;27.20
10840;BME280;5473;42.706;23.328;2022-09-13T11:59:26;36406.69;;;-142.93;25.93
10840;BME280;5473;42.706;23.328;2022-09-13T12:02:08;36386.78;;;-142.93;25.94
10840;BME280;5473;42.706;23.328;2022-09-13T12:04:43;36585.72;;;-142.93;26.25
10840;BME280;5473;42.706;23.328;2022-09-13T12:07:22;37021.41;;;-142.93;27.87
10840;BME280;5473;42.706;23.328;2022-09-13T12:09:54;37061.19;;;-142.93;28.51
10840;BME280;5473;42.706;23.328;2022-09-13T12:12:27;36953.75;;;-142.93;28.04
10840;BME280;5473;42.706;23.328;2022-09-13T12:15:00;36798.59;;;-142.93;27.10
10840;BME280;5473;42.706;23.328;2022-09-13T12:17:30;36792.63;;;-142.93;26.84
10840;BME280;5473;42.706;23.328;2022-09-13T12:20:02;36685.19;;;-142.93;26.72
10840;BME280;5473;42.706;23.328;2022-09-13T12:22:46;36537.97;;;-142.93;26.33
10840;BME280;5473;42.706;23.328;2022-09-13T12:25:22;36539.97;;;-142.93;26.53
10840;BME280;5473;42.706;23.328;2022-09-13T12:27:55;36468.34;;;-142.93;26.33
10840;BME280;5473;42.706;23.328;2022-09-13T12:30:30;36442.50;;;-142.93;26.03
10840;BME280;5473;42.706;23.328;2022-09-13T12:32:59;36474.31;;;-142.93;26.33
10840;BME280;5473;42.706;23.328;2022-09-13T12:35:29;36721.00;;;-142.93;26.83
10840;BME280;5473;42.706;23.328;2022-09-13T12:41:17;36806.53;;;-142.93;26.83
10840;BME280;5473;42.706;23.328;2022-09-13T12:47:13;36959.72;;;-142.93;27.31
10840;BME280;5473;42.706;23.328;2022-09-13T12:49:55;37106.94;;;-142.93;28.45
10840;BME280;5473;42.706;23.328;2022-09-13T12:52:36;37375.56;;;-142.93;29.21
10840;BME280;5473;42.706;23.328;2022-09-13T12:55:30;37395.47;;;-142.93;29.73
10840;BME280;5473;42.706;23.328;2022-09-13T12:58:16;37365.63;;;-142.93;29.34
10840;BME280;5473;42.706;23.328;2022-09-13T13:00:57;37445.19;;;-142.93;29.42
10840;BME280;5473;42.706;23.328;2022-09-13T13:03:33;37570.56;;;-142.93;30.53
10840;BME280;5473;42.706;23.328;2022-09-13T13:06:08;37540.72;;;-142.93;30.86
10840;BME280;5473;42.706;23.328;2022-09-13T13:08:37;37477.03;;;-142.93;30.35
10840;BME280;5473;42.706;23.328;2022-09-13T13:11:06;37393.47;;;-142.93;30.01
10840;BME280;5473;42.706;23.328;2022-09-13T13:13:38;37325.81;;;-142.93;29.38
10840;BME280;5473;42.706;23.328;2022-09-13T13:16:21;37262.16;;;-142.93;29.32